Daleville, Alabama
Current Conditions -  °F | °C
As of 7:58 AM on Monday 20 Oct 2014 (Local Time) from KOZR Reporting Station
Clear Clear  
Wind Chill: 53°   Ceiling: Unl
Heat Index: 53°   Visibility: 10mi
Dew Point: 51°   Wind: 6mph
Humidity: 91%   Direction: 40°NE
Pressure: 30.09"   Gusts: NA
Location:  31.31°N, 85.71°W
Report Text: KOZR 201258Z AUTO 04005KT 10SM CLR 12/10 A3009 RMK AO2 SLP191 T01180103
Loading
Personal Weather Stations






























Interactive Weather Map New forecast layout! Learn more

10-Day Weather Forecast

Advertisements
Track Severe Weather on mobile